createdAt,value
2023-04-06T00:01:57.123Z,8.77
2023-04-06T00:04:24.975Z,9.60
2023-04-06T00:06:52.797Z,9.73
2023-04-06T00:09:22.036Z,6.63
2023-04-06T00:11:49.890Z,10.63
2023-04-06T00:14:18.621Z,8.83
2023-04-06T00:16:46.585Z,9.17
2023-04-06T00:19:14.335Z,7.30
2023-04-06T00:21:42.325Z,9.47
2023-04-06T00:24:10.396Z,8.20
2023-04-06T00:26:39.631Z,7.57
2023-04-06T00:29:07.842Z,9.03
2023-04-06T00:31:35.992Z,11.33
2023-04-06T00:34:03.863Z,7.83
2023-04-06T00:36:31.697Z,7.67
2023-04-06T00:38:59.515Z,10.73
2023-04-06T00:41:27.391Z,8.13
2023-04-06T00:43:57.219Z,9.93
2023-04-06T00:46:25.230Z,10.03
2023-04-06T00:48:53.115Z,9.73
2023-04-06T00:51:21.020Z,10.20
2023-04-06T00:53:48.838Z,10.00
2023-04-06T00:56:16.672Z,7.43
2023-04-06T00:58:44.488Z,8.40
2023-04-06T01:01:13.759Z,9.80
2023-04-06T01:03:43.227Z,11.03
2023-04-06T01:06:11.094Z,11.07
2023-04-06T01:08:38.985Z,9.00
2023-04-06T01:11:06.810Z,10.57
2023-04-06T01:13:34.700Z,10.63
2023-04-06T01:16:02.725Z,9.33
2023-04-06T01:18:32.022Z,10.13
2023-04-06T01:21:00.729Z,8.33
2023-04-06T01:23:30.005Z,11.57
2023-04-06T01:25:57.764Z,11.23
2023-04-06T01:28:25.682Z,11.53
2023-04-06T01:30:53.626Z,9.50
2023-04-06T01:33:21.420Z,9.47
2023-04-06T01:35:49.211Z,12.20
2023-04-06T01:38:17.236Z,11.70
2023-04-06T01:40:46.517Z,8.80
2023-04-06T01:43:14.432Z,10.67
2023-04-06T01:45:42.307Z,11.43
2023-04-06T01:48:10.474Z,10.93
2023-04-06T01:50:38.361Z,11.37
2023-04-06T01:53:06.315Z,9.27
2023-04-06T01:55:34.099Z,11.90
2023-04-06T01:58:03.252Z,11.37
2023-04-06T02:00:31.341Z,10.40
2023-04-06T02:02:59.385Z,10.97
2023-04-06T02:05:27.428Z,12.10
2023-04-06T02:07:55.236Z,9.40
2023-04-06T02:10:23.034Z,14.30
2023-04-06T02:12:50.974Z,11.50
2023-04-06T02:15:20.181Z,11.20
2023-04-06T02:17:47.982Z,11.80
2023-04-06T02:20:15.934Z,10.90
2023-04-06T02:22:43.702Z,12.43
2023-04-06T02:25:11.549Z,9.70
2023-04-06T02:27:39.383Z,11.23
2023-04-06T02:30:08.535Z,11.33
2023-04-06T02:32:37.805Z,13.13
2023-04-06T02:35:06.376Z,12.43
2023-04-06T02:37:34.165Z,12.57
2023-04-06T02:40:01.996Z,9.17
2023-04-06T02:42:30.338Z,10.67
2023-04-06T02:44:58.159Z,8.67
2023-04-06T02:47:26.007Z,9.90
2023-04-06T02:49:55.190Z,13.10
2023-04-06T02:52:22.998Z,11.67
2023-04-06T02:54:52.100Z,12.03
2023-04-06T02:57:20.099Z,10.30
2023-04-06T02:59:48.315Z,11.97
2023-04-06T03:02:16.211Z,10.67
2023-04-06T03:04:44.309Z,11.53
2023-04-06T03:07:13.507Z,10.53
2023-04-06T03:09:41.289Z,13.00
2023-04-06T03:12:10.200Z,16.57
2023-04-06T03:14:38.254Z,12.20
2023-04-06T03:17:06.058Z,16.07
2023-04-06T03:19:33.868Z,12.40
2023-04-06T03:22:01.684Z,13.60
2023-04-06T03:24:30.823Z,11.37
2023-04-06T03:26:58.583Z,8.87
2023-04-06T03:29:26.402Z,10.47
2023-04-06T03:31:54.208Z,12.73
2023-04-06T03:34:22.025Z,11.37
2023-04-06T03:36:59.533Z,11.67
2023-04-06T03:39:36.255Z,13.03
2023-04-06T03:42:04.199Z,10.57
2023-04-06T03:44:31.980Z,12.07
2023-04-06T03:46:59.789Z,12.50
2023-04-06T03:49:27.605Z,11.93
2023-04-06T03:51:55.420Z,13.70
2023-04-06T03:54:23.172Z,11.83
2023-04-06T03:56:52.335Z,11.77
2023-04-06T03:59:20.472Z,13.13
2023-04-06T04:01:48.310Z,12.33
2023-04-06T04:04:16.400Z,13.87
2023-04-06T04:06:44.227Z,11.57
2023-04-06T04:09:12.047Z,14.17
2023-04-06T04:11:39.919Z,15.70
2023-04-06T04:14:09.104Z,11.27
2023-04-06T04:16:37.077Z,15.90
2023-04-06T04:19:04.998Z,13.20
2023-04-06T04:21:33.817Z,12.70
2023-04-06T04:24:01.625Z,9.97
2023-04-06T04:26:29.366Z,15.17
2023-04-06T04:28:57.236Z,15.97
2023-04-06T04:31:26.469Z,12.00
2023-04-06T04:33:54.369Z,10.80
2023-04-06T04:36:22.191Z,10.73
2023-04-06T04:38:50.276Z,16.07
2023-04-06T04:41:18.127Z,12.53
2023-04-06T04:43:46.582Z,17.27
2023-04-06T04:46:14.487Z,14.67
2023-04-06T04:48:43.887Z,14.57
2023-04-06T04:51:11.769Z,15.13
2023-04-06T04:53:39.598Z,15.83
2023-04-06T04:56:07.583Z,13.37
2023-04-06T04:58:35.384Z,13.27
2023-04-06T05:01:03.289Z,12.90
2023-04-06T05:03:31.497Z,13.40
2023-04-06T05:06:01.034Z,12.27
2023-04-06T05:08:28.896Z,13.23
2023-04-06T05:10:56.826Z,11.03
2023-04-06T05:13:24.769Z,14.10
2023-04-06T05:15:52.806Z,13.47
2023-04-06T05:18:20.814Z,15.43
2023-04-06T05:20:50.877Z,14.80
2023-04-06T05:23:20.026Z,12.60
2023-04-06T05:25:47.848Z,14.17
2023-04-06T05:28:16.907Z,16.20
2023-04-06T05:30:44.946Z,11.63
2023-04-06T05:33:12.961Z,12.03
2023-04-06T05:35:40.847Z,13.67
2023-04-06T05:38:10.608Z,13.03
2023-04-06T05:40:41.887Z,15.53
2023-04-06T05:43:09.796Z,16.73
2023-04-06T05:45:37.674Z,22.77
2023-04-06T05:48:05.763Z,14.53
2023-04-06T05:50:33.573Z,12.87
2023-04-06T05:53:01.414Z,13.03
2023-04-06T05:55:29.793Z,11.63
2023-04-06T05:57:59.019Z,13.00
2023-04-06T06:00:27.305Z,13.77
2023-04-06T06:02:55.211Z,15.07
2023-04-06T06:05:23.141Z,13.63
2023-04-06T06:07:51.142Z,13.57
2023-04-06T06:10:19.035Z,13.70
2023-04-06T06:12:47.100Z,14.57
2023-04-06T06:15:16.593Z,13.27
2023-04-06T06:17:44.544Z,11.67
2023-04-06T06:20:13.253Z,11.73
2023-04-06T06:22:41.910Z,15.20
2023-04-06T06:25:10.217Z,13.70
2023-04-06T06:27:38.037Z,12.33
2023-04-06T06:30:07.241Z,10.87
2023-04-06T06:32:36.510Z,11.63
2023-04-06T06:35:04.742Z,16.33
2023-04-06T06:37:32.590Z,12.63
2023-04-06T06:40:00.458Z,15.33
2023-04-06T06:42:28.295Z,14.87
2023-04-06T06:44:56.412Z,13.73
2023-04-06T06:47:24.224Z,15.97
2023-04-06T06:49:53.441Z,12.53
2023-04-06T06:52:21.239Z,13.00
2023-04-06T06:54:49.014Z,13.00
2023-04-06T06:57:16.952Z,16.80
2023-04-06T06:59:44.769Z,13.40
2023-04-06T07:02:12.753Z,17.50
2023-04-06T07:04:40.669Z,14.27
2023-04-06T07:07:10.278Z,16.23
2023-04-06T07:09:38.160Z,18.37
2023-04-06T07:12:06.063Z,15.97
2023-04-06T07:14:34.213Z,12.60
2023-04-06T07:17:02.109Z,16.60
2023-04-06T07:19:30.116Z,13.83
2023-04-06T07:21:57.980Z,15.30
2023-04-06T07:24:27.606Z,14.67
2023-04-06T07:26:55.547Z,15.20
2023-04-06T07:29:24.044Z,18.37
2023-04-06T07:31:51.878Z,16.83
2023-04-06T07:34:19.728Z,13.27
2023-04-06T07:36:47.499Z,17.60
2023-04-06T07:39:15.314Z,19.40
2023-04-06T07:41:44.596Z,14.40
2023-04-06T07:44:12.460Z,16.03
2023-04-06T07:46:40.478Z,16.40
2023-04-06T07:49:08.404Z,17.90
2023-04-06T07:51:38.002Z,17.53
2023-04-06T07:54:06.362Z,21.03
2023-04-06T07:56:34.478Z,17.23
2023-04-06T07:59:04.038Z,20.17
2023-04-06T08:01:31.940Z,17.87
2023-04-06T08:03:59.985Z,15.50
2023-04-06T08:06:27.947Z,16.77
2023-04-06T08:08:56.311Z,14.50
2023-04-06T08:11:24.227Z,17.07
2023-04-06T08:13:52.053Z,18.77
2023-04-06T08:16:21.387Z,16.90
2023-04-06T08:18:49.302Z,15.07
2023-04-06T08:21:17.093Z,13.63
2023-04-06T08:23:44.961Z,17.07
2023-04-06T08:26:12.895Z,19.23
2023-04-06T08:28:40.717Z,15.33
2023-04-06T08:31:08.795Z,18.10
2023-04-06T08:33:40.059Z,16.97
2023-04-06T08:36:12.880Z,16.33
2023-04-06T08:38:41.067Z,18.43
2023-04-06T08:41:10.395Z,14.63
2023-04-06T08:43:44.789Z,13.83
2023-04-06T08:46:13.303Z,17.90
2023-04-06T08:48:43.386Z,16.73
2023-04-06T08:51:11.639Z,21.47
2023-04-06T08:53:40.203Z,16.87
2023-04-06T08:56:08.334Z,18.70
2023-04-06T08:58:38.993Z,16.57
2023-04-06T09:01:09.877Z,19.53
2023-04-06T09:03:41.352Z,17.27
2023-04-06T09:06:12.167Z,17.43
2023-04-06T09:08:41.980Z,17.57
2023-04-06T09:11:10.163Z,15.90
2023-04-06T09:13:47.400Z,16.63
2023-04-06T09:16:15.508Z,16.23
2023-04-06T09:18:43.657Z,15.97
2023-04-06T09:21:13.338Z,21.13
2023-04-06T09:23:41.605Z,18.77
2023-04-06T09:26:11.032Z,21.93
2023-04-06T09:28:49.277Z,20.67
2023-04-06T09:31:17.960Z,18.97
2023-04-06T09:33:47.497Z,21.13
2023-04-06T09:36:17.493Z,20.73
2023-04-06T09:38:56.778Z,17.97
2023-04-06T09:41:26.243Z,17.83
2023-04-06T09:43:54.581Z,17.37
2023-04-06T09:46:24.145Z,21.60
2023-04-06T09:48:52.250Z,20.33
2023-04-06T09:51:22.405Z,19.30
2023-04-06T09:53:54.711Z,21.20
2023-04-06T09:56:26.777Z,20.77
2023-04-06T09:58:59.035Z,20.87
2023-04-06T10:01:28.964Z,24.00
2023-04-06T10:03:58.929Z,24.57
2023-04-06T10:06:29.637Z,24.93
2023-04-06T10:08:58.994Z,21.80
2023-04-06T10:11:27.039Z,25.13
2023-04-06T10:13:54.853Z,23.10
2023-04-06T10:16:23.183Z,24.20
2023-04-06T10:18:54.411Z,21.40
2023-04-06T10:21:25.903Z,23.70
2023-04-06T10:23:58.111Z,24.03
2023-04-06T10:26:26.100Z,21.57
2023-04-06T10:28:55.211Z,24.53
2023-04-06T10:31:27.173Z,24.23
2023-04-06T10:33:58.670Z,25.67
2023-04-06T10:36:28.552Z,30.00
2023-04-06T10:38:59.151Z,25.90
2023-04-06T10:41:34.287Z,23.93
2023-04-06T10:44:02.382Z,22.57
2023-04-06T10:46:31.514Z,29.43
2023-04-06T10:48:59.626Z,23.43
2023-04-06T10:51:29.515Z,29.93
2023-04-06T10:53:59.121Z,26.27
2023-04-06T10:56:29.089Z,25.50
2023-04-06T10:58:58.010Z,25.70
2023-04-06T11:01:27.533Z,28.27
2023-04-06T11:03:56.810Z,31.13
2023-04-06T11:06:26.399Z,28.27
2023-04-06T11:08:54.708Z,29.90
2023-04-06T11:11:27.274Z,29.93
2023-04-06T11:13:56.551Z,28.43
2023-04-06T11:16:25.836Z,25.10
2023-04-06T11:18:56.602Z,25.43
2023-04-06T11:21:35.753Z,29.27
2023-04-06T11:24:08.476Z,28.27
2023-04-06T11:26:41.347Z,26.83
2023-04-06T11:29:09.623Z,25.13
2023-04-06T11:31:42.254Z,27.17
2023-04-06T11:34:14.356Z,29.60
2023-04-06T11:36:43.669Z,27.97
2023-04-06T11:39:12.147Z,28.20
2023-04-06T11:41:41.687Z,24.70
2023-04-06T11:44:09.790Z,24.73
2023-04-06T11:46:37.635Z,26.30
2023-04-06T11:49:05.671Z,24.63
2023-04-06T11:51:37.984Z,25.20
2023-04-06T11:54:05.918Z,24.97
2023-04-06T11:56:33.780Z,29.47
2023-04-06T11:59:02.977Z,23.20
2023-04-06T12:01:34.115Z,29.97
2023-04-06T12:04:04.968Z,25.67
2023-04-06T12:06:32.808Z,26.23
2023-04-06T12:09:00.743Z,25.00
2023-04-06T12:11:28.650Z,27.27
2023-04-06T12:13:56.397Z,23.30
2023-04-06T12:16:25.602Z,24.93
2023-04-06T12:18:53.556Z,26.60
2023-04-06T12:21:21.383Z,25.40
2023-04-06T12:23:49.158Z,25.40
2023-04-06T12:26:16.966Z,28.83
2023-04-06T12:28:45.724Z,24.97
2023-04-06T12:31:17.408Z,25.83
2023-04-06T12:33:48.930Z,26.97
2023-04-06T12:36:20.003Z,25.63
2023-04-06T12:38:49.343Z,27.33
2023-04-06T12:41:17.454Z,25.90
2023-04-06T12:43:46.118Z,23.43
2023-04-06T12:46:14.062Z,20.03
2023-04-06T12:48:42.150Z,23.83
2023-04-06T12:51:11.660Z,28.97
2023-04-06T12:53:39.637Z,25.63
2023-04-06T12:56:14.077Z,36.23
2023-04-06T12:58:42.758Z,23.53
2023-04-06T13:01:11.737Z,21.07
2023-04-06T13:03:39.698Z,25.20
2023-04-06T13:06:09.235Z,26.50
2023-04-06T13:08:39.570Z,22.03
2023-04-06T13:11:09.823Z,23.07
2023-04-06T13:13:38.604Z,24.67
2023-04-06T13:16:08.583Z,26.93
2023-04-06T13:18:39.299Z,26.63
2023-04-06T13:21:07.758Z,23.23
2023-04-06T13:23:35.802Z,27.03
2023-04-06T13:26:06.577Z,24.47
2023-04-06T13:28:36.379Z,23.97
2023-04-06T13:31:04.632Z,26.40
2023-04-06T13:33:33.531Z,24.63
2023-04-06T13:36:01.868Z,27.43
2023-04-06T13:38:29.835Z,26.93
2023-04-06T13:40:57.822Z,24.17
2023-04-06T13:43:27.955Z,25.37
2023-04-06T13:45:57.058Z,24.20
2023-04-06T13:48:25.250Z,22.47
2023-04-06T13:50:53.062Z,24.70
2023-04-06T13:53:20.751Z,18.57
2023-04-06T13:55:55.028Z,20.27
2023-04-06T13:58:22.875Z,26.53
2023-04-06T14:00:52.099Z,23.27
2023-04-06T14:03:20.561Z,23.70
2023-04-06T14:05:48.549Z,24.93
2023-04-06T14:08:16.328Z,18.50
2023-04-06T14:10:44.128Z,16.60
2023-04-06T14:13:12.754Z,19.97
2023-04-06T14:15:40.713Z,20.47
2023-04-06T14:18:09.871Z,17.27
2023-04-06T14:20:37.623Z,23.07
2023-04-06T14:23:05.861Z,16.97
2023-04-06T14:25:35.461Z,14.97
2023-04-06T14:28:03.421Z,14.17
2023-04-06T14:30:32.187Z,16.43
2023-04-06T14:33:00.748Z,17.10
2023-04-06T14:35:31.589Z,15.63
2023-04-06T14:37:59.302Z,15.23
2023-04-06T14:40:27.224Z,14.43
2023-04-06T14:42:56.605Z,15.80
2023-04-06T14:45:24.639Z,13.13
2023-04-06T14:47:52.535Z,15.97
2023-04-06T14:50:20.389Z,14.87
2023-04-06T14:52:49.390Z,17.73
2023-04-06T14:55:17.264Z,20.57
2023-04-06T14:57:44.959Z,21.33
2023-04-06T15:00:14.465Z,17.80
2023-04-06T15:02:44.215Z,18.67
2023-04-06T15:05:12.211Z,17.93
2023-04-06T15:07:39.890Z,17.27
2023-04-06T15:10:12.274Z,16.90
2023-04-06T15:12:40.285Z,19.03
2023-04-06T15:15:08.857Z,16.03
2023-04-06T15:17:36.610Z,19.90
2023-04-06T15:20:04.600Z,23.03
2023-04-06T15:22:32.316Z,20.33
2023-04-06T15:24:59.994Z,19.00
2023-04-06T15:27:29.111Z,22.90
2023-04-06T15:29:56.914Z,23.53
2023-04-06T15:32:24.589Z,23.13
2023-04-06T15:34:52.340Z,21.63
2023-04-06T15:37:20.174Z,26.57
2023-04-06T15:39:47.931Z,27.77
2023-04-06T15:42:15.881Z,31.03
2023-04-06T15:44:44.951Z,36.40
2023-04-06T15:47:12.781Z,28.97
2023-04-06T15:49:40.519Z,26.20
2023-04-06T15:52:08.234Z,23.33
2023-04-06T15:54:36.500Z,53.47
2023-04-06T15:57:04.250Z,20.63
2023-04-06T15:59:31.923Z,30.67
2023-04-06T16:02:01.047Z,22.47
2023-04-06T16:04:29.179Z,25.47
2023-04-06T16:06:56.937Z,33.83
2023-04-06T16:09:24.676Z,22.33
2023-04-06T16:11:52.414Z,24.40
2023-04-06T16:14:21.835Z,28.90
2023-04-06T16:16:50.305Z,24.73
2023-04-06T16:19:19.564Z,30.03
2023-04-06T16:21:47.583Z,30.20
2023-04-06T16:24:15.346Z,26.47
2023-04-06T16:26:44.337Z,30.40
2023-04-06T16:29:12.053Z,28.30
2023-04-06T16:31:39.757Z,30.50
2023-04-06T16:34:07.544Z,20.83
2023-04-06T16:36:37.594Z,19.57
2023-04-06T16:39:05.370Z,20.73
2023-04-06T16:41:33.100Z,20.83
2023-04-06T16:44:00.907Z,22.10
2023-04-06T16:46:32.104Z,28.63
2023-04-06T16:49:00.182Z,25.50
2023-04-06T16:51:28.243Z,23.53
2023-04-06T16:53:57.279Z,23.47
2023-04-06T16:56:24.968Z,28.77
2023-04-06T16:58:52.833Z,24.53
2023-04-06T17:01:21.206Z,22.87
2023-04-06T17:03:49.407Z,21.13
2023-04-06T17:06:17.281Z,22.13
2023-04-06T17:08:45.895Z,23.87
2023-04-06T17:11:18.668Z,24.93
2023-04-06T17:13:50.387Z,22.37
2023-04-06T17:16:19.496Z,21.43
2023-04-06T17:18:47.298Z,24.63
2023-04-06T17:21:16.947Z,24.27
2023-04-06T17:23:44.995Z,21.00
2023-04-06T17:26:13.147Z,21.13
2023-04-06T17:28:42.250Z,22.60
2023-04-06T17:31:11.174Z,22.87
2023-04-06T17:33:39.100Z,26.63
2023-04-06T17:36:09.688Z,22.80
2023-04-06T17:38:38.377Z,21.13
2023-04-06T17:41:07.580Z,20.90
2023-04-06T17:43:35.315Z,21.33
2023-04-06T17:46:04.461Z,20.37
2023-04-06T17:48:32.627Z,24.00
2023-04-06T17:51:00.423Z,22.47
2023-04-06T17:53:30.546Z,24.50
2023-04-06T17:55:58.251Z,20.87
2023-04-06T17:58:26.320Z,22.23
2023-04-06T18:00:54.187Z,24.00
2023-04-06T18:03:23.253Z,26.13
2023-04-06T18:05:51.676Z,26.73
2023-04-06T18:08:19.339Z,24.13
2023-04-06T18:10:48.371Z,29.47
2023-04-06T18:13:16.176Z,25.77
2023-04-06T18:15:43.887Z,27.33
2023-04-06T18:18:11.649Z,28.00
2023-04-06T18:20:42.299Z,30.83
2023-04-06T18:23:09.975Z,34.40
2023-04-06T18:25:39.624Z,28.30
2023-04-06T18:28:07.571Z,27.07
2023-04-06T18:30:35.580Z,28.67
2023-04-06T18:33:04.108Z,28.97
2023-04-06T18:35:31.981Z,32.03
2023-04-06T18:38:01.269Z,29.80
2023-04-06T18:40:33.900Z,31.93
2023-04-06T18:43:02.001Z,33.07
2023-04-06T18:45:29.710Z,31.80
2023-04-06T18:47:58.001Z,33.50
2023-04-06T18:50:25.847Z,29.77
2023-04-06T18:52:53.836Z,27.30
2023-04-06T18:55:23.059Z,27.80
2023-04-06T18:57:50.895Z,28.93
2023-04-06T19:00:19.027Z,27.10
2023-04-06T19:02:47.345Z,28.00
2023-04-06T19:05:15.291Z,30.43
2023-04-06T19:07:43.148Z,29.40
2023-04-06T19:10:12.595Z,32.20
2023-04-06T19:12:41.734Z,29.60
2023-04-06T19:15:10.715Z,35.03
2023-04-06T19:17:39.294Z,38.03
2023-04-06T19:20:08.290Z,38.27
2023-04-06T19:22:36.786Z,32.77
2023-04-06T19:25:04.826Z,33.53
2023-04-06T19:27:32.579Z,31.47
2023-04-06T19:30:01.844Z,34.03
2023-04-06T19:32:30.209Z,32.90
2023-04-06T19:34:59.535Z,28.23
2023-04-06T19:37:27.265Z,29.10
2023-04-06T19:39:55.091Z,26.80
2023-04-06T19:42:23.092Z,28.43
2023-04-06T19:44:50.774Z,25.03
2023-04-06T19:47:19.939Z,29.40
2023-04-06T19:49:47.687Z,24.33
2023-04-06T19:52:15.456Z,25.83
2023-04-06T19:54:44.043Z,30.80
2023-04-06T19:57:12.063Z,24.57
2023-04-06T19:59:39.908Z,24.30
2023-04-06T20:02:08.292Z,23.93
2023-04-06T20:04:37.652Z,25.17
2023-04-06T20:07:05.402Z,23.93
2023-04-06T20:09:33.087Z,23.83
2023-04-06T20:12:01.530Z,23.13
2023-04-06T20:14:30.546Z,28.37
2023-04-06T20:16:58.409Z,26.83
2023-04-06T20:19:26.240Z,29.63
2023-04-06T20:21:55.651Z,35.70
2023-04-06T20:24:23.544Z,30.43
2023-04-06T20:26:52.888Z,28.20
2023-04-06T20:29:20.690Z,28.73
2023-04-06T20:31:48.429Z,27.90
2023-04-06T20:34:16.493Z,26.67
2023-04-06T20:36:45.243Z,25.77
2023-04-06T20:39:14.463Z,24.63
2023-04-06T20:41:42.403Z,21.20
2023-04-06T20:44:10.292Z,20.63
2023-04-06T20:46:38.100Z,19.83
2023-04-06T20:49:06.190Z,22.03
2023-04-06T20:51:33.883Z,17.60
2023-04-06T20:54:01.780Z,18.40
2023-04-06T20:56:30.843Z,20.93
2023-04-06T20:58:59.716Z,18.60
2023-04-06T21:01:29.214Z,18.77
2023-04-06T21:03:57.153Z,21.23
2023-04-06T21:06:27.398Z,18.00
2023-04-06T21:08:55.373Z,18.50
2023-04-06T21:11:23.179Z,22.37
2023-04-06T21:13:52.300Z,21.37
2023-04-06T21:16:20.780Z,19.63
2023-04-06T21:18:48.626Z,21.63
2023-04-06T21:21:16.414Z,22.53
2023-04-06T21:23:44.188Z,20.73
2023-04-06T21:26:13.381Z,20.13
2023-04-06T21:28:41.129Z,23.10
2023-04-06T21:31:10.254Z,26.00
2023-04-06T21:33:37.974Z,23.13
2023-04-06T21:36:06.873Z,24.23
2023-04-06T21:38:36.127Z,26.13
2023-04-06T21:41:03.893Z,23.47
2023-04-06T21:43:31.699Z,29.07
2023-04-06T21:45:59.623Z,23.40
2023-04-06T21:48:28.655Z,24.97
2023-04-06T21:50:56.386Z,26.73
2023-04-06T21:53:24.185Z,26.20
2023-04-06T21:55:51.937Z,27.50
2023-04-06T21:58:19.710Z,24.43
2023-04-06T22:00:47.539Z,28.90
2023-04-06T22:03:15.429Z,27.27
2023-04-06T22:05:44.677Z,28.33
2023-04-06T22:08:17.840Z,31.37
2023-04-06T22:10:53.583Z,31.53
2023-04-06T22:13:21.343Z,27.87
2023-04-06T22:15:49.165Z,31.47
2023-04-06T22:18:16.913Z,28.50
2023-04-06T22:20:47.087Z,31.40
2023-04-06T22:23:14.813Z,28.80
2023-04-06T22:25:42.604Z,34.17
2023-04-06T22:28:10.352Z,31.60
2023-04-06T22:30:38.066Z,40.30
2023-04-06T22:33:05.950Z,31.30
2023-04-06T22:35:33.906Z,33.07
2023-04-06T22:38:02.998Z,32.70
2023-04-06T22:40:30.864Z,34.60
2023-04-06T22:42:58.600Z,33.57
2023-04-06T22:45:26.848Z,30.30
2023-04-06T22:47:54.712Z,36.43
2023-04-06T22:50:22.947Z,35.53
2023-04-06T22:52:50.818Z,34.47
2023-04-06T22:55:19.854Z,34.97
2023-04-06T22:57:47.625Z,33.80
2023-04-06T23:00:16.310Z,31.53
2023-04-06T23:02:44.273Z,35.33
2023-04-06T23:05:12.215Z,32.53
2023-04-06T23:07:39.874Z,35.13
2023-04-06T23:10:08.809Z,34.73
2023-04-06T23:12:37.974Z,33.13
2023-04-06T23:15:06.401Z,35.47
2023-04-06T23:17:34.251Z,33.43
2023-04-06T23:20:02.035Z,30.57
2023-04-06T23:22:29.792Z,31.57
2023-04-06T23:24:57.495Z,32.77
2023-04-06T23:27:25.495Z,34.87
2023-04-06T23:29:55.606Z,33.60
2023-04-06T23:32:23.361Z,34.50
2023-04-06T23:34:51.132Z,31.00
2023-04-06T23:37:18.907Z,32.17
2023-04-06T23:39:48.404Z,33.87
2023-04-06T23:42:16.191Z,30.53
2023-04-06T23:44:43.958Z,37.10
2023-04-06T23:47:13.008Z,35.73
2023-04-06T23:49:40.730Z,34.17
2023-04-06T23:52:08.489Z,32.80
2023-04-06T23:54:36.361Z,33.03
2023-04-06T23:57:04.381Z,36.00
2023-04-06T23:59:32.109Z,32.67
